Time;durP1;ratioP1;P1;durP2;ratioP2;P2;SDS_P1;SDS_P2;PMS_P1;PMS_P2;Temp;Humidity;BMP_temperature;BMP_pressure;BME280_temperature;BME280_humidity;BME280_pressure;Samples;Min_cycle;Max_cycle;Signal;HPM_P1;HPM_P2
2022/04/18 00:01:43;;;;;;;16.30;11.30;;;5.40;99.90;;;;;;5058761;28;20040;-82
2022/04/18 00:04:09;;;;;;;16.70;11.18;;;5.30;99.90;;;;;;5058507;28;20107;-83
2022/04/18 00:06:36;;;;;;;15.75;10.45;;;5.40;99.90;;;;;;5058531;28;20021;-82
2022/04/18 00:09:03;;;;;;;16.77;11.48;;;5.30;99.90;;;;;;5058275;28;20018;-82
2022/04/18 00:11:29;;;;;;;17.52;11.10;;;5.30;99.90;;;;;;5058356;28;20026;-83
2022/04/18 00:13:54;;;;;;;17.40;11.90;;;5.50;99.90;;;;;;5058415;28;20051;-82
2022/04/18 00:16:20;;;;;;;16.92;10.93;;;5.40;99.90;;;;;;5056875;28;20053;-82
2022/04/18 00:18:45;;;;;;;17.45;11.45;;;5.30;99.90;;;;;;5058042;28;20032;-83
2022/04/18 00:21:11;;;;;;;19.70;12.88;;;5.20;99.90;;;;;;5058577;28;20247;-83
2022/04/18 00:23:37;;;;;;;16.08;11.70;;;5.50;99.90;;;;;;5058115;28;20018;-83
2022/04/18 00:26:03;;;;;;;18.48;12.20;;;5.20;99.90;;;;;;5058127;28;20028;-83
2022/04/18 00:28:28;;;;;;;16.90;12.10;;;5.20;99.90;;;;;;5058145;28;20021;-83
2022/04/18 00:30:54;;;;;;;17.58;12.35;;;5.20;99.90;;;;;;5058022;28;20037;-83
2022/04/18 00:33:19;;;;;;;17.38;12.38;;;5.00;99.90;;;;;;5058093;28;20040;-82
2022/04/18 00:35:45;;;;;;;17.73;12.27;;;5.00;99.90;;;;;;5057763;28;20029;-82
2022/04/18 00:38:10;;;;;;;17.58;12.65;;;5.00;99.90;;;;;;5057772;28;20040;-83
2022/04/18 00:40:36;;;;;;;19.08;12.02;;;4.90;99.90;;;;;;5057838;28;20045;-83
2022/04/18 00:43:06;;;;;;;16.98;12.52;;;5.10;99.90;;;;;;5057376;28;20021;-83
2022/04/18 00:45:32;;;;;;;18.45;12.55;;;5.30;99.90;;;;;;5051605;28;20019;-83
2022/04/18 00:47:58;;;;;;;18.83;12.95;;;5.10;99.90;;;;;;5057124;28;20029;-83
2022/04/18 00:50:26;;;;;;;18.05;12.80;;;5.00;99.90;;;;;;5057708;28;20109;-83
2022/04/18 00:52:53;;;;;;;18.02;12.20;;;5.00;99.90;;;;;;5057637;28;20041;-83
2022/04/18 00:55:20;;;;;;;16.83;12.52;;;4.90;99.90;;;;;;5056771;28;20022;-83
2022/04/18 00:57:47;;;;;;;17.88;12.82;;;5.00;99.90;;;;;;5057709;28;20064;-83
2022/04/18 01:00:14;;;;;;;20.23;12.45;;;5.10;99.90;;;;;;5057433;28;20033;-82
2022/04/18 01:02:39;;;;;;;17.73;12.02;;;5.10;99.90;;;;;;5057670;28;20021;-83
2022/04/18 01:05:05;;;;;;;19.83;12.32;;;4.90;99.90;;;;;;5057583;28;20025;-83
2022/04/18 01:07:33;;;;;;;17.70;11.95;;;4.80;99.90;;;;;;5057242;28;20017;-83
2022/04/18 01:09:58;;;;;;;18.95;12.98;;;4.90;99.90;;;;;;5057485;28;20017;-83
2022/04/18 01:12:24;;;;;;;19.60;14.15;;;4.80;99.90;;;;;;5056971;28;20033;-83
2022/04/18 01:14:50;;;;;;;18.58;13.75;;;4.80;99.90;;;;;;5056296;28;20052;-82
2022/04/18 01:17:16;;;;;;;19.63;13.70;;;4.80;99.90;;;;;;5056699;28;20037;-81
2022/04/18 01:19:42;;;;;;;18.77;13.18;;;4.60;99.90;;;;;;5056863;28;20021;-81
2022/04/18 01:22:14;;;;;;;19.45;13.57;;;4.70;99.90;;;;;;5056992;28;20021;-81
2022/04/18 01:30:13;;;;;;;21.17;13.82;;;4.70;99.90;;;;;;5056992;28;20056;-81
2022/04/18 01:32:39;;;;;;;19.67;13.55;;;4.70;99.90;;;;;;5056608;28;20013;-81
2022/04/18 01:35:05;;;;;;;22.23;14.00;;;4.50;99.90;;;;;;5056904;28;20093;-81
2022/04/18 01:37:30;;;;;;;19.17;13.57;;;4.40;99.90;;;;;;5056615;28;20038;-81
2022/04/18 01:39:56;;;;;;;21.48;14.40;;;4.50;99.90;;;;;;5056794;28;20051;-81
2022/04/18 01:42:22;;;;;;;20.50;13.82;;;4.30;99.90;;;;;;5056703;28;20044;-81
2022/04/18 01:44:48;;;;;;;20.77;14.73;;;4.30;99.90;;;;;;5056570;28;20033;-81
2022/04/18 01:47:14;;;;;;;20.30;14.70;;;4.70;99.90;;;;;;5056633;28;20097;-81
2022/04/18 01:49:39;;;;;;;20.80;13.55;;;4.40;99.90;;;;;;5056616;28;20028;-81
2022/04/18 01:52:05;;;;;;;18.08;13.55;;;4.50;99.90;;;;;;5056574;28;20082;-80
2022/04/18 01:54:30;;;;;;;21.95;14.60;;;4.30;99.90;;;;;;5056601;28;20025;-81
2022/04/18 01:56:56;;;;;;;18.70;13.20;;;4.20;99.90;;;;;;5056441;28;20040;-81
2022/04/18 01:59:21;;;;;;;21.00;14.07;;;4.10;99.90;;;;;;5056506;28;20021;-80
2022/04/18 02:01:47;;;;;;;21.17;14.43;;;4.20;99.90;;;;;;5056524;28;20039;-81
2022/04/18 02:04:12;;;;;;;18.88;13.52;;;4.10;99.90;;;;;;5056171;28;20094;-81
2022/04/18 02:06:38;;;;;;;21.92;14.15;;;4.10;99.90;;;;;;5055968;28;20057;-81
2022/04/18 02:09:04;;;;;;;22.85;15.23;;;3.90;99.90;;;;;;5056024;28;20017;-81
2022/04/18 02:11:29;;;;;;;22.20;14.02;;;4.10;99.90;;;;;;5055872;28;20018;-81
2022/04/18 02:13:55;;;;;;;20.42;13.90;;;4.00;99.90;;;;;;5055992;28;20018;-81
2022/04/18 02:16:21;;;;;;;22.00;15.40;;;4.20;99.90;;;;;;5055998;28;20072;-81
2022/04/18 02:18:47;;;;;;;18.98;13.75;;;4.40;99.90;;;;;;5048142;28;20017;-82
2022/04/18 02:21:12;;;;;;;18.88;13.73;;;4.30;99.90;;;;;;5056176;28;20018;-81
2022/04/18 02:23:42;;;;;;;21.00;14.88;;;4.20;99.90;;;;;;5055959;28;20026;-81
2022/04/18 02:26:08;;;;;;;20.88;14.52;;;4.20;99.90;;;;;;5056079;28;20010;-81
2022/04/18 02:28:35;;;;;;;21.83;14.40;;;4.20;99.90;;;;;;5055676;28;20026;-82
2022/04/18 02:31:01;;;;;;;20.67;13.63;;;4.10;99.90;;;;;;5056024;28;20017;-82
2022/04/18 02:33:26;;;;;;;22.42;14.20;;;4.30;99.90;;;;;;5055764;28;20010;-82
2022/04/18 02:35:52;;;;;;;20.52;14.48;;;4.00;99.90;;;;;;5055783;28;20017;-81
2022/04/18 02:38:18;;;;;;;19.90;14.07;;;3.90;99.90;;;;;;5055824;28;20053;-81
2022/04/18 02:40:44;;;;;;;23.05;14.68;;;4.20;99.90;;;;;;5055798;28;20033;-81
2022/04/18 02:43:09;;;;;;;20.20;14.75;;;4.30;99.90;;;;;;5055971;28;20037;-82
2022/04/18 02:45:35;;;;;;;21.58;14.45;;;4.00;99.90;;;;;;5055789;28;20080;-81
2022/04/18 02:48:01;;;;;;;20.95;15.20;;;4.30;99.90;;;;;;5055909;28;20310;-81
2022/04/18 02:50:27;;;;;;;19.88;14.23;;;4.40;99.90;;;;;;5055853;28;20068;-82
2022/04/18 02:52:53;;;;;;;22.00;15.35;;;4.10;99.90;;;;;;5055583;28;20013;-82
2022/04/18 02:55:19;;;;;;;24.70;15.95;;;4.70;99.90;;;;;;5055757;28;20021;-82
2022/04/18 02:57:45;;;;;;;22.63;15.25;;;4.40;99.90;;;;;;5055271;28;20049;-82
2022/04/18 03:00:11;;;;;;;20.30;14.30;;;4.30;99.90;;;;;;5055779;28;20044;-82
2022/04/18 03:02:38;;;;;;;25.33;16.20;;;4.30;99.90;;;;;;5055698;28;20017;-82
2022/04/18 03:05:05;;;;;;;22.38;15.70;;;4.30;99.90;;;;;;5055823;28;20029;-81
2022/04/18 03:07:31;;;;;;;23.70;15.75;;;4.30;99.90;;;;;;5055706;28;20010;-82
2022/04/18 03:09:57;;;;;;;22.48;15.30;;;4.20;99.90;;;;;;5055617;28;20028;-82
2022/04/18 03:12:23;;;;;;;21.85;15.55;;;3.90;99.90;;;;;;5055661;28;20025;-82
2022/04/18 03:14:49;;;;;;;22.23;15.55;;;4.20;99.90;;;;;;5055167;28;20069;-82
2022/04/18 03:17:15;;;;;;;23.23;15.65;;;3.90;99.90;;;;;;5055511;28;20042;-81
2022/04/18 03:19:41;;;;;;;22.40;15.55;;;4.10;99.90;;;;;;5058123;28;20028;-82
2022/04/18 03:22:07;;;;;;;20.90;15.38;;;4.10;99.90;;;;;;5059433;28;20021;-81
2022/04/18 03:24:33;;;;;;;20.95;15.27;;;4.20;99.90;;;;;;5059417;28;20025;-81
2022/04/18 03:27:00;;;;;;;26.73;16.00;;;4.10;99.90;;;;;;5059083;28;20021;-81
2022/04/18 03:29:25;;;;;;;23.67;15.93;;;3.90;99.90;;;;;;5059351;28;20041;-82
2022/04/18 03:31:52;;;;;;;24.45;16.20;;;4.20;99.90;;;;;;5059131;28;20044;-82
2022/04/18 03:34:18;;;;;;;24.27;17.33;;;4.10;99.90;;;;;;5059338;28;20322;-82
2022/04/18 03:42:12;;;;;;;25.77;16.60;;;3.80;99.90;;;;;;5059141;28;20044;-81
2022/04/18 03:44:46;;;;;;;25.02;16.35;;;3.80;99.90;;;;;;5058921;28;20022;-82
2022/04/18 03:47:13;;;;;;;24.95;17.60;;;4.00;99.90;;;;;;5059020;28;20017;-82
2022/04/18 03:49:40;;;;;;;27.70;17.35;;;4.20;99.90;;;;;;5058642;28;20078;-81
2022/04/18 03:52:06;;;;;;;22.33;16.23;;;4.20;99.90;;;;;;5058687;28;20040;-81
2022/04/18 03:54:34;;;;;;;25.35;16.77;;;4.10;99.90;;;;;;5058614;28;20014;-81
2022/04/18 03:57:00;;;;;;;24.70;17.05;;;4.20;99.90;;;;;;5058635;28;20045;-81
2022/04/18 03:59:26;;;;;;;25.52;18.05;;;4.10;99.90;;;;;;5058398;28;20069;-81
2022/04/18 04:01:51;;;;;;;27.30;17.58;;;4.50;99.90;;;;;;5058701;28;20041;-81
2022/04/18 04:04:17;;;;;;;27.50;16.17;;;4.40;99.90;;;;;;5058299;28;20162;-80
2022/04/18 04:06:42;;;;;;;26.15;18.00;;;4.50;99.90;;;;;;5058726;28;20076;-81
2022/04/18 04:09:08;;;;;;;27.60;17.38;;;4.30;99.90;;;;;;5058299;28;20029;-81
2022/04/18 04:11:33;;;;;;;28.70;18.67;;;4.20;99.90;;;;;;5058215;28;20017;-81
2022/04/18 04:13:59;;;;;;;23.42;17.10;;;4.10;99.90;;;;;;5057940;28;20036;-82
2022/04/18 04:16:24;;;;;;;25.90;17.63;;;4.00;99.90;;;;;;5058213;28;20041;-81
2022/04/18 04:18:50;;;;;;;23.80;16.35;;;3.70;99.90;;;;;;5058388;28;20077;-81
2022/04/18 04:21:16;;;;;;;27.60;18.30;;;3.60;99.90;;;;;;5058146;28;20048;-81
2022/04/18 04:23:41;;;;;;;23.63;17.80;;;3.90;99.90;;;;;;5057423;28;20045;-81
2022/04/18 04:26:07;;;;;;;27.25;18.67;;;3.80;99.90;;;;;;5057863;28;20060;-81
2022/04/18 04:28:34;;;;;;;25.27;18.33;;;3.80;99.90;;;;;;5058049;28;20017;-80
2022/04/18 04:31:00;;;;;;;28.20;19.13;;;3.60;99.90;;;;;;5056727;28;20022;-81
2022/04/18 04:33:25;;;;;;;28.05;17.90;;;3.70;99.90;;;;;;5057903;28;20084;-82
2022/04/18 04:35:51;;;;;;;27.75;17.02;;;3.60;99.90;;;;;;5057638;28;20018;-81
2022/04/18 04:38:16;;;;;;;26.42;18.30;;;3.60;99.90;;;;;;5058126;28;20040;-81
2022/04/18 04:40:42;;;;;;;29.35;18.02;;;3.50;99.90;;;;;;5054690;28;20100;-82
2022/04/18 04:43:10;;;;;;;26.33;18.65;;;3.50;99.90;;;;;;5051671;28;20036;-82
2022/04/18 04:45:35;;;;;;;25.25;17.85;;;3.60;99.90;;;;;;5050655;28;20036;-81
2022/04/18 04:48:01;;;;;;;26.73;18.40;;;3.70;99.90;;;;;;5051783;28;20022;-81
2022/04/18 04:50:26;;;;;;;26.48;18.55;;;3.60;99.90;;;;;;5046336;28;20013;-82
2022/04/18 04:52:52;;;;;;;29.25;18.20;;;3.60;99.90;;;;;;5051501;28;20033;-82
2022/04/18 04:55:18;;;;;;;24.00;18.02;;;3.80;99.90;;;;;;5057198;28;20057;-80
2022/04/18 04:57:44;;;;;;;28.92;17.42;;;3.70;99.90;;;;;;5053774;28;20056;-82
2022/04/18 05:00:10;;;;;;;27.23;19.15;;;4.00;99.90;;;;;;5047539;28;20057;-81
2022/04/18 05:02:36;;;;;;;30.05;19.33;;;4.00;99.90;;;;;;5040864;28;20026;-81
2022/04/18 05:05:01;;;;;;;26.33;18.67;;;4.10;99.90;;;;;;5046544;28;20025;-82
2022/04/18 05:07:27;;;;;;;24.30;17.30;;;4.00;99.90;;;;;;5049859;28;20018;-81
2022/04/18 05:09:52;;;;;;;28.85;18.40;;;4.30;99.90;;;;;;5056985;28;20037;-80
2022/04/18 05:12:18;;;;;;;25.95;18.65;;;4.20;99.90;;;;;;5057223;28;20044;-81
2022/04/18 05:14:43;;;;;;;29.45;20.08;;;4.40;99.90;;;;;;5056323;28;20056;-81
2022/04/18 05:17:09;;;;;;;27.58;18.77;;;4.40;99.90;;;;;;5057284;28;20056;-81
2022/04/18 05:19:34;;;;;;;29.17;18.85;;;4.40;99.90;;;;;;5056868;28;20029;-81
2022/04/18 05:22:00;;;;;;;24.65;17.63;;;4.60;99.90;;;;;;5057091;28;20045;-81
2022/04/18 05:24:25;;;;;;;29.58;18.50;;;4.90;99.90;;;;;;5056989;28;20033;-81
2022/04/18 05:26:51;;;;;;;29.80;18.92;;;5.00;99.90;;;;;;5052583;28;20034;-82
2022/04/18 05:29:16;;;;;;;26.70;18.30;;;5.10;99.90;;;;;;5043053;28;20040;-82
2022/04/18 05:31:42;;;;;;;28.92;19.48;;;5.10;99.90;;;;;;5047722;28;20085;-82
2022/04/18 05:34:08;;;;;;;30.08;19.90;;;5.10;99.90;;;;;;5042035;28;20013;-82
2022/04/18 05:36:33;;;;;;;29.83;18.52;;;5.30;99.90;;;;;;5053498;28;20029;-81
2022/04/18 05:38:59;;;;;;;28.17;18.30;;;5.80;99.90;;;;;;5045068;28;20017;-81
2022/04/18 05:41:24;;;;;;;27.73;18.85;;;10.00;99.90;;;;;;5045953;28;20042;-81
2022/04/18 05:43:50;;;;;;;29.33;19.48;;;11.30;99.90;;;;;;5054822;28;20021;-81
2022/04/18 05:46:16;;;;;;;25.55;17.85;;;10.60;99.90;;;;;;5051236;28;20081;-81
2022/04/18 05:48:42;;;;;;;26.60;18.52;;;8.40;99.90;;;;;;5056288;28;20025;-81
2022/04/18 05:51:08;;;;;;;28.63;18.55;;;7.40;99.90;;;;;;5047130;28;20022;-81
2022/04/18 05:53:34;;;;;;;27.88;18.75;;;7.10;99.90;;;;;;5050672;28;20017;-81
2022/04/18 05:55:59;;;;;;;27.20;17.85;;;6.90;99.90;;;;;;5051077;28;20026;-81
2022/04/18 05:58:26;;;;;;;25.38;19.30;;;6.90;99.90;;;;;;5050456;28;20104;-83
2022/04/18 06:00:52;;;;;;;26.63;18.83;;;6.80;99.90;;;;;;5053084;28;20045;-83
2022/04/18 06:03:18;;;;;;;25.02;18.02;;;6.80;99.90;;;;;;5050797;28;20033;-83
2022/04/18 06:05:43;;;;;;;26.70;18.77;;;6.80;99.90;;;;;;5041227;28;20101;-83
2022/04/18 06:08:09;;;;;;;26.58;19.20;;;6.90;99.90;;;;;;5041265;28;20520;-82
2022/04/18 06:10:40;;;;;;;27.23;19.58;;;7.00;99.90;;;;;;5045542;28;20021;-81
2022/04/18 06:13:08;;;;;;;28.38;19.02;;;7.00;99.90;;;;;;5042045;28;20018;-82
2022/04/18 06:15:34;;;;;;;26.02;18.95;;;7.10;99.90;;;;;;5045411;28;20043;-83
2022/04/18 06:18:00;;;;;;;29.58;19.83;;;7.10;99.90;;;;;;5042377;28;20018;-82
2022/04/18 06:20:25;;;;;;;29.45;19.05;;;7.20;99.90;;;;;;5046911;28;20026;-82
2022/04/18 06:22:51;;;;;;;28.73;18.92;;;7.30;99.90;;;;;;5041360;28;20049;-83
2022/04/18 06:25:16;;;;;;;27.38;18.90;;;7.30;99.90;;;;;;5040677;28;20044;-83
2022/04/18 06:27:42;;;;;;;28.02;18.13;;;7.50;99.90;;;;;;5048747;28;20101;-82
2022/04/18 06:30:08;;;;;;;27.05;19.13;;;7.60;99.90;;;;;;5043893;28;20022;-82
2022/04/18 06:32:37;;;;;;;23.83;18.27;;;7.80;99.90;;;;;;5041825;28;20022;-83
2022/04/18 06:35:04;;;;;;;31.88;19.00;;;8.00;99.90;;;;;;5038821;28;20030;-83
2022/04/18 06:37:31;;;;;;;26.25;17.30;;;8.20;99.90;;;;;;5042653;28;20030;-83
2022/04/18 06:39:57;;;;;;;27.02;17.23;;;11.20;99.90;;;;;;5037936;28;20037;-83
2022/04/18 06:42:23;;;;;;;24.73;16.83;;;16.80;99.90;;;;;;5041205;28;20025;-83
2022/04/18 06:44:49;;;;;;;24.23;15.57;;;18.70;99.90;;;;;;5040966;28;20053;-83
2022/04/18 06:47:14;;;;;;;24.80;16.25;;;19.90;99.90;;;;;;5037397;28;20052;-83
2022/04/18 06:49:40;;;;;;;20.58;16.08;;;21.30;99.90;;;;;;5043981;28;20006;-82
2022/04/18 06:52:06;;;;;;;20.95;15.30;;;23.40;99.90;;;;;;5046022;28;20025;-82
2022/04/18 06:54:32;;;;;;;25.38;16.42;;;24.10;99.90;;;;;;5056261;28;20030;-82
2022/04/18 06:57:00;;;;;;;20.38;14.70;;;25.00;99.90;;;;;;5057858;28;20017;-82
2022/04/18 06:59:28;;;;;;;25.63;16.60;;;27.10;99.90;;;;;;5053750;28;20032;-83
2022/04/18 07:01:54;;;;;;;21.77;15.85;;;27.30;99.90;;;;;;5045682;28;20025;-83
2022/04/18 07:04:19;;;;;;;24.77;15.68;;;28.90;99.90;;;;;;5045672;28;20030;-83
2022/04/18 07:06:45;;;;;;;21.33;15.38;;;30.90;99.90;;;;;;5045319;28;20041;-83
2022/04/18 07:09:11;;;;;;;19.83;14.93;;;30.90;99.90;;;;;;5046724;28;20021;-83
2022/04/18 07:11:36;;;;;;;21.08;16.25;;;30.30;99.90;;;;;;5044512;28;20049;-83
2022/04/18 07:14:02;;;;;;;20.98;16.23;;;30.40;99.90;;;;;;5057223;28;20014;-83
2022/04/18 07:16:31;;;;;;;19.50;15.23;;;32.70;99.90;;;;;;5052896;28;20377;-81
2022/04/18 07:19:00;;;;;;;19.83;15.40;;;31.70;99.90;;;;;;5046208;28;20068;-82
2022/04/18 07:21:26;;;;;;;19.90;14.32;;;32.60;99.90;;;;;;5045622;28;20075;-83
2022/04/18 07:23:52;;;;;;;16.63;14.00;;;33.70;99.90;;;;;;5034790;28;20022;-82
2022/04/18 07:26:18;;;;;;;15.13;13.30;;;33.40;99.90;;;;;;5041843;28;20025;-83
2022/04/18 07:28:44;;;;;;;18.77;15.20;;;34.40;99.90;;;;;;5054687;28;20477;-82
2022/04/18 07:31:09;;;;;;;18.83;14.55;;;34.10;99.90;;;;;;5048916;28;20049;-82
2022/04/18 07:33:35;;;;;;;17.48;14.45;;;34.00;99.90;;;;;;5042454;28;20018;-83
2022/04/18 07:36:01;;;;;;;17.38;14.88;;;34.60;99.90;;;;;;5032759;28;20417;-83
2022/04/18 07:41:11;;;;;;;16.77;14.07;;;35.70;99.90;;;;;;5056953;28;20091;-83
2022/04/18 07:43:37;;;;;;;19.40;14.48;;;35.80;99.90;;;;;;5053444;28;20022;-82
2022/04/18 07:46:03;;;;;;;19.00;14.90;;;36.50;99.90;;;;;;5055554;28;20010;-84
2022/04/18 07:48:30;;;;;;;16.00;14.35;;;37.00;99.90;;;;;;5054079;28;20028;-83
2022/04/18 07:53:40;;;;;;;15.73;14.13;;;36.40;99.90;;;;;;5054657;28;20028;-84
2022/04/18 07:56:06;;;;;;;17.13;14.80;;;32.50;99.90;;;;;;5047118;28;20026;-84
2022/04/18 07:58:32;;;;;;;16.52;14.82;;;34.60;99.90;;;;;;5048161;28;20067;-84
2022/04/18 08:00:57;;;;;;;18.63;14.95;;;34.50;99.90;;;;;;5058704;28;20041;-84
2022/04/18 08:03:23;;;;;;;17.70;13.80;;;34.90;99.90;;;;;;5057576;28;20120;-84
2022/04/18 08:05:49;;;;;;;19.13;14.68;;;37.00;99.90;;;;;;5057755;28;20032;-84
2022/04/18 08:08:14;;;;;;;20.05;15.65;;;35.40;99.90;;;;;;5055224;28;20052;-84
2022/04/18 08:10:40;;;;;;;16.60;14.52;;;36.30;99.90;;;;;;5052813;28;20061;-84
2022/04/18 08:13:05;;;;;;;16.92;14.57;;;38.60;99.90;;;;;;5045325;28;20025;-83
2022/04/18 08:15:32;;;;;;;16.27;14.40;;;39.10;99.90;;;;;;5057421;28;20054;-84
2022/04/18 08:17:57;;;;;;;16.67;14.13;;;36.80;99.90;;;;;;5057169;28;20029;-83
2022/04/18 08:20:23;;;;;;;16.15;13.48;;;37.70;99.90;;;;;;5053135;28;20030;-84
2022/04/18 08:22:49;;;;;;;17.88;14.75;;;39.40;99.90;;;;;;5049526;28;20014;-84
2022/04/18 08:25:15;;;;;;;17.10;15.07;;;36.70;99.90;;;;;;5052080;28;20093;-83
2022/04/18 08:27:41;;;;;;;16.00;14.30;;;35.60;99.90;;;;;;5057781;28;20036;-84
2022/04/18 08:30:07;;;;;;;16.30;14.57;;;38.20;99.90;;;;;;5055767;28;20093;-84
2022/04/18 08:32:36;;;;;;;17.40;14.80;;;38.80;99.90;;;;;;5056141;28;20034;-84
2022/04/18 08:35:01;;;;;;;16.77;14.25;;;38.20;99.90;;;;;;5042072;28;20018;-84
2022/04/18 08:37:27;;;;;;;15.73;14.05;;;37.20;99.90;;;;;;5050235;28;20093;-84
2022/04/18 08:39:52;;;;;;;15.75;13.98;;;38.50;99.90;;;;;;5034602;28;20022;-82
2022/04/18 08:42:21;;;;;;;15.30;13.80;;;39.10;99.90;;;;;;5032736;28;20064;-84
2022/04/18 08:44:51;;;;;;;17.60;14.73;;;38.90;99.90;;;;;;5034704;28;20021;-84
2022/04/18 08:53:03;;;;;;;14.40;12.90;;;39.20;99.90;;;;;;4982912;28;20041;-84
2022/04/18 08:55:30;;;;;;;14.20;11.85;;;39.80;99.90;;;;;;5039244;28;20437;-85
2022/04/18 08:57:56;;;;;;;12.82;11.55;;;40.60;99.90;;;;;;5035398;28;20410;-84
2022/04/18 09:00:21;;;;;;;12.43;11.15;;;40.30;99.90;;;;;;5035789;28;20097;-84
2022/04/18 09:02:47;;;;;;;12.23;11.05;;;40.80;99.90;;;;;;5039590;28;20045;-84
2022/04/18 09:05:14;;;;;;;12.18;10.93;;;39.10;99.90;;;;;;5037781;28;20105;-85
2022/04/18 09:07:43;;;;;;;13.60;11.63;;;37.30;99.90;;;;;;5041214;28;20063;-84
2022/04/18 09:10:11;;;;;;;13.25;11.73;;;38.70;99.90;;;;;;5041784;28;20022;-84
2022/04/18 09:12:42;;;;;;;11.50;10.38;;;40.80;99.90;;;;;;5041175;28;20021;-84
2022/04/18 09:15:09;;;;;;;13.48;11.60;;;37.80;99.90;;;;;;5038784;28;20045;-84
2022/04/18 09:17:36;;;;;;;11.45;10.25;;;37.60;99.90;;;;;;5037118;28;20057;-84
2022/04/18 09:20:13;;;;;;;11.40;10.27;;;39.70;99.90;;;;;;5036103;28;20025;-84
2022/04/18 09:22:48;;;;;;;12.15;10.85;;;40.80;99.90;;;;;;5034871;28;20079;-85
2022/04/18 09:25:19;;;;;;;11.43;10.23;;;41.30;99.90;;;;;;5034796;28;20023;-85
2022/04/18 09:27:56;;;;;;;11.32;10.13;;;40.80;99.90;;;;;;5036590;28;20110;-84
2022/04/18 09:30:23;;;;;;;10.40;9.30;;;40.50;99.90;;;;;;5037298;28;20067;-84
2022/04/18 09:33:08;;;;;;;11.85;10.77;;;40.90;99.90;;;;;;5034362;28;20109;-84
2022/04/18 09:35:35;;;;;;;10.65;9.65;;;41.50;99.90;;;;;;5036103;28;20041;-84
2022/04/18 09:38:11;;;;;;;11.68;10.10;;;40.20;99.90;;;;;;5038359;28;20290;-85
2022/04/18 09:40:37;;;;;;;10.68;9.57;;;40.30;99.90;;;;;;5032120;28;20528;-84
2022/04/18 09:43:02;;;;;;;10.13;9.23;;;39.30;99.90;;;;;;5041122;28;20018;-83
2022/04/18 09:45:29;;;;;;;10.88;9.65;;;39.10;99.90;;;;;;5043497;28;20029;-83
2022/04/18 09:47:56;;;;;;;10.60;9.50;;;36.90;99.90;;;;;;5041563;28;20025;-83
2022/04/18 09:53:19;;;;;;;9.82;8.93;;;38.40;99.90;;;;;;5029985;28;20575;-84
2022/04/18 09:55:47;;;;;;;9.20;8.30;;;38.00;99.90;;;;;;5037229;28;20037;-83
2022/04/18 09:58:13;;;;;;;9.68;8.60;;;39.10;99.90;;;;;;5032833;28;20029;-84
2022/04/18 10:00:40;;;;;;;11.32;9.45;;;39.00;99.90;;;;;;5028563;28;20048;-83
2022/04/18 10:03:07;;;;;;;8.95;8.15;;;35.30;99.90;;;;;;5036145;28;20081;-83
2022/04/18 10:05:33;;;;;;;10.10;9.02;;;38.10;99.90;;;;;;5042557;28;20153;-84
2022/04/18 10:08:03;;;;;;;9.18;8.27;;;38.20;99.90;;;;;;5043783;28;20033;-84
2022/04/18 10:10:31;;;;;;;9.50;8.25;;;36.10;99.90;;;;;;5045294;28;20026;-82
2022/04/18 10:12:57;;;;;;;9.10;8.27;;;37.70;99.90;;;;;;5049996;28;20393;-83
2022/04/18 10:15:23;;;;;;;9.10;8.20;;;36.90;99.90;;;;;;5042977;28;20489;-83
2022/04/18 10:17:50;;;;;;;8.57;7.63;;;38.10;99.90;;;;;;5039688;28;20025;-83
2022/04/18 10:20:30;;;;;;;10.40;9.05;;;38.40;99.90;;;;;;5034214;28;20021;-84
2022/04/18 10:23:09;;;;;;;9.88;8.88;;;37.40;99.90;;;;;;5036765;28;20068;-84
2022/04/18 10:26:09;;;;;;;9.15;8.18;;;36.90;99.90;;;;;;5033081;28;20053;-84
2022/04/18 10:28:37;;;;;;;8.88;7.80;;;36.20;99.90;;;;;;5030621;28;20087;-84
2022/04/18 10:31:12;;;;;;;9.67;7.87;;;36.30;99.90;;;;;;5031590;28;20058;-83
2022/04/18 10:33:38;;;;;;;8.57;7.68;;;36.70;99.90;;;;;;5025407;28;20026;-83
2022/04/18 10:36:05;;;;;;;10.05;7.70;;;36.50;99.90;;;;;;5026291;28;20026;-83
2022/04/18 10:38:41;;;;;;;8.73;7.93;;;36.70;99.90;;;;;;5024360;28;20500;-84
2022/04/18 10:41:45;;;;;;;8.20;7.50;;;37.10;99.90;;;;;;5029971;28;20033;-84
2022/04/18 10:44:15;;;;;;;7.80;7.00;;;35.90;99.90;;;;;;5031994;28;20110;-83
2022/04/18 10:46:51;;;;;;;7.07;6.38;;;36.90;99.90;;;;;;5028483;28;20022;-83
2022/04/18 10:49:18;;;;;;;7.47;6.85;;;35.30;99.90;;;;;;5025245;28;20045;-84
2022/04/18 10:51:46;;;;;;;9.57;7.90;;;36.30;99.90;;;;;;5035653;28;20039;-84
2022/04/18 10:54:20;;;;;;;7.30;6.60;;;35.40;99.90;;;;;;5025705;28;20033;-83
2022/04/18 10:57:13;;;;;;;6.43;5.82;;;34.60;99.90;;;;;;5019398;28;20030;-84
2022/04/18 10:59:42;;;;;;;7.47;6.72;;;35.30;99.90;;;;;;5034523;28;20037;-84
2022/04/18 11:02:09;;;;;;;;;;;35.40;99.90;;;;;;5041050;28;20025;-83
2022/04/18 11:04:40;;;;;;;7.35;6.65;;;32.50;99.90;;;;;;5038664;28;19909;-83
2022/04/18 11:07:08;;;;;;;6.97;6.38;;;32.20;99.90;;;;;;5024671;28;20026;-83
2022/04/18 11:09:41;;;;;;;6.45;5.85;;;30.50;99.90;;;;;;5028181;28;20096;-83
2022/04/18 11:12:12;;;;;;;6.90;6.30;;;28.80;99.90;;;;;;5039515;28;20040;-82
2022/04/18 11:14:38;;;;;;;7.38;6.38;;;27.20;99.90;;;;;;5036745;28;20508;-82
2022/04/18 11:17:05;;;;;;;6.80;6.13;;;26.80;99.90;;;;;;5036788;28;20030;-84
2022/04/18 11:19:35;;;;;;;6.35;5.75;;;26.60;99.90;;;;;;5034938;28;20033;-85
2022/04/18 11:22:01;;;;;;;7.38;6.65;;;25.20;99.90;;;;;;5034440;28;20068;-85
2022/04/18 11:24:51;;;;;;;6.45;5.85;;;25.40;99.90;;;;;;5033114;28;20057;-85
2022/04/18 11:27:18;;;;;;;5.88;5.28;;;25.20;99.90;;;;;;5033143;28;20074;-85
2022/04/18 11:29:46;;;;;;;6.40;5.78;;;25.00;99.90;;;;;;5032712;28;20028;-85
2022/04/18 11:32:17;;;;;;;7.70;5.38;;;24.90;99.90;;;;;;5032927;28;20037;-83
2022/04/18 11:34:45;;;;;;;5.28;4.78;;;24.80;99.90;;;;;;5023605;28;20032;-84
2022/04/18 11:37:12;;;;;;;6.40;5.65;;;24.50;99.90;;;;;;5018206;28;20040;-84
2022/04/18 11:39:46;;;;;;;5.97;5.30;;;24.60;99.90;;;;;;5034434;28;20253;-85
2022/04/18 11:42:20;;;;;;;3.17;2.97;;;24.90;99.90;;;;;;5027844;28;20091;-85
2022/04/18 11:44:47;;;;;;;3.72;3.28;;;24.90;99.90;;;;;;5036596;28;20055;-84
2022/04/18 11:47:14;;;;;;;4.93;4.40;;;24.60;99.90;;;;;;5035023;28;20040;-84
2022/04/18 11:49:41;;;;;;;4.30;3.80;;;23.90;99.90;;;;;;5033439;28;20041;-85
2022/04/18 11:52:20;;;;;;;3.60;3.30;;;23.00;99.90;;;;;;5032689;28;20033;-85
2022/04/18 11:55:17;;;;;;;4.30;3.72;;;23.70;99.90;;;;;;5041164;28;20021;-84
2022/04/18 11:57:45;;;;;;;3.35;3.15;;;23.80;99.90;;;;;;5040434;28;20408;-83
2022/04/18 12:00:14;;;;;;;3.70;3.15;;;24.00;99.90;;;;;;5029266;28;20052;-83
2022/04/18 12:08:13;;;;;;;5.03;3.58;;;24.30;99.90;;;;;;5035575;28;20037;-83
2022/04/18 12:10:41;;;;;;;3.25;2.95;;;24.10;99.90;;;;;;5034154;28;20030;-83
2022/04/18 12:13:12;;;;;;;3.25;2.92;;;24.20;99.90;;;;;;5033903;28;20604;-83
2022/04/18 12:15:39;;;;;;;3.08;2.63;;;24.40;99.90;;;;;;5034041;28;20132;-83
2022/04/18 12:18:13;;;;;;;3.50;2.90;;;24.00;99.90;;;;;;5033292;28;20030;-83
2022/04/18 12:20:57;;;;;;;4.60;3.20;;;24.10;99.90;;;;;;5032890;28;20057;-84
2022/04/18 12:23:25;;;;;;;5.13;3.10;;;24.20;99.90;;;;;;5032614;28;20025;-83
2022/04/18 12:25:52;;;;;;;3.90;3.00;;;24.30;99.90;;;;;;5033285;28;20014;-84
2022/04/18 12:28:23;;;;;;;2.53;2.33;;;24.10;99.90;;;;;;5029244;28;20029;-84
2022/04/18 12:30:50;;;;;;;3.25;3.05;;;23.90;99.90;;;;;;5024102;28;20018;-84
2022/04/18 12:33:19;;;;;;;4.07;3.78;;;23.90;99.90;;;;;;5032974;28;20041;-84
2022/04/18 12:35:48;;;;;;;3.58;3.28;;;23.90;99.90;;;;;;5026776;28;20147;-84
2022/04/18 12:38:15;;;;;;;3.88;3.45;;;24.10;99.90;;;;;;5028692;28;20026;-84
2022/04/18 12:40:42;;;;;;;2.75;2.55;;;23.90;99.90;;;;;;5025313;28;20057;-84
2022/04/18 12:43:10;;;;;;;3.38;2.90;;;23.90;99.90;;;;;;5032211;28;20021;-84
2022/04/18 12:45:48;;;;;;;2.83;2.63;;;23.80;99.90;;;;;;5033394;28;20022;-84
2022/04/18 12:48:19;;;;;;;3.72;3.10;;;23.90;99.90;;;;;;5022885;28;20030;-81
2022/04/18 12:50:45;;;;;;;3.50;3.20;;;23.90;99.90;;;;;;5018040;28;20530;-84
2022/04/18 12:53:11;;;;;;;3.78;3.45;;;23.90;99.90;;;;;;5021400;28;20029;-84
2022/04/18 12:55:37;;;;;;;3.88;3.58;;;23.80;99.90;;;;;;5024995;28;20033;-84
2022/04/18 12:58:13;;;;;;;3.90;3.60;;;23.50;99.90;;;;;;5018639;28;20562;-84
2022/04/18 13:00:38;;;;;;;3.33;3.00;;;23.40;99.90;;;;;;5031226;28;20044;-83
2022/04/18 13:03:06;;;;;;;3.17;2.97;;;23.40;99.90;;;;;;5033580;28;20018;-84
2022/04/18 13:05:40;;;;;;;3.42;3.13;;;23.50;99.90;;;;;;5036090;28;20493;-84
2022/04/18 13:08:06;;;;;;;3.22;2.80;;;23.50;99.90;;;;;;5033169;28;20036;-83
2022/04/18 13:10:35;;;;;;;3.72;3.22;;;23.30;99.90;;;;;;5031454;28;20017;-83